createdAt,value
2022-08-09T00:00:13.327Z,13.52
2022-08-09T00:02:49.525Z,13.48
2022-08-09T00:06:18.730Z,13.44
2022-08-09T00:08:11.330Z,13.42
2022-08-09T00:10:58.232Z,13.41
2022-08-09T00:13:24.830Z,13.39
2022-08-09T00:15:59.638Z,13.40
2022-08-09T00:18:34.759Z,13.40
2022-08-09T00:21:07.803Z,13.40
2022-08-09T00:23:55.288Z,13.40
2022-08-09T00:26:29.988Z,13.42
2022-08-09T00:29:00.480Z,13.39
2022-08-09T00:31:55.863Z,13.36
2022-08-09T00:34:13.664Z,13.34
2022-08-09T00:36:41.559Z,13.34
2022-08-09T00:39:17.042Z,13.32
2022-08-09T00:44:11.080Z,13.30
2022-08-09T00:44:42.606Z,13.23
2022-08-09T00:47:15.344Z,13.22
2022-08-09T00:49:52.422Z,13.19
2022-08-09T00:52:22.879Z,13.23
2022-08-09T00:54:58.893Z,13.19
2022-08-09T00:57:34.944Z,13.18
2022-08-09T01:00:21.231Z,13.15
2022-08-09T01:02:53.677Z,13.16
2022-08-09T01:05:53.742Z,13.17
2022-08-09T01:08:35.096Z,13.17
2022-08-09T01:11:08.421Z,13.14
2022-08-09T01:14:00.353Z,13.11
2022-08-09T01:16:33.385Z,13.08
2022-08-09T01:19:16.989Z,13.08
2022-08-09T01:22:27.458Z,13.09
2022-08-09T01:25:05.880Z,13.08
2022-08-09T01:27:36.051Z,13.09
2022-08-09T01:30:08.250Z,13.11
2022-08-09T01:32:43.870Z,13.12
2022-08-09T01:35:38.083Z,13.15
2022-08-09T01:38:15.388Z,13.16
2022-08-09T01:40:52.926Z,13.15
2022-08-09T01:43:50.108Z,13.17
2022-08-09T01:46:26.483Z,13.17
2022-08-09T01:49:00.172Z,13.20
2022-08-09T01:51:44.248Z,13.17
2022-08-09T01:54:13.777Z,13.15
2022-08-09T01:56:47.143Z,13.20
2022-08-09T01:59:19.794Z,13.21
2022-08-09T02:01:59.834Z,13.21
2022-08-09T02:04:29.676Z,13.16
2022-08-09T02:07:08.499Z,13.15
2022-08-09T02:09:59.877Z,13.05
2022-08-09T02:12:30.787Z,12.94
2022-08-09T02:15:00.777Z,12.87
2022-08-09T02:18:00.424Z,12.81
2022-08-09T02:20:26.399Z,12.82
2022-08-09T02:23:10.053Z,12.78
2022-08-09T02:25:42.190Z,12.78
2022-08-09T02:28:28.996Z,12.73
2022-08-09T02:31:05.969Z,12.74
2022-08-09T02:34:07.422Z,12.74
2022-08-09T02:36:37.507Z,12.70
2022-08-09T02:39:14.323Z,12.66
2022-08-09T02:42:06.681Z,12.63
2022-08-09T02:44:41.309Z,12.58
2022-08-09T02:47:11.384Z,12.56
2022-08-09T02:50:01.766Z,12.52
2022-08-09T02:52:36.562Z,12.47
2022-08-09T02:55:19.848Z,12.45
2022-08-09T02:58:00.774Z,12.43
2022-08-09T03:00:47.730Z,12.41
2022-08-09T03:04:13.138Z,12.39
2022-08-09T03:06:15.030Z,12.36
2022-08-09T03:08:46.299Z,12.34
2022-08-09T03:12:04.814Z,12.32
2022-08-09T03:14:07.118Z,12.29
2022-08-09T03:16:37.357Z,12.26
2022-08-09T03:19:14.306Z,12.26
2022-08-09T03:21:56.618Z,12.28
2022-08-09T03:24:31.567Z,12.26
2022-08-09T03:27:10.772Z,12.32
2022-08-09T03:29:58.188Z,12.34
2022-08-09T03:32:26.794Z,12.36
2022-08-09T03:34:55.891Z,12.31
2022-08-09T03:37:55.958Z,12.28
2022-08-09T03:40:13.139Z,12.22
2022-08-09T03:42:40.062Z,12.17
2022-08-09T03:45:10.903Z,12.16
2022-08-09T03:47:40.268Z,12.12
2022-08-09T03:50:10.875Z,12.10
2022-08-09T03:52:40.556Z,12.05
2022-08-09T03:55:10.711Z,12.02
2022-08-09T03:57:44.759Z,12.03
2022-08-09T04:00:28.300Z,11.99
2022-08-09T04:02:57.376Z,11.93
2022-08-09T04:05:27.996Z,11.94
2022-08-09T04:07:57.754Z,11.91
2022-08-09T04:10:29.480Z,11.87
2022-08-09T04:13:01.007Z,11.88
2022-08-09T04:15:38.874Z,11.86
2022-08-09T04:18:16.590Z,11.85
2022-08-09T04:20:45.791Z,11.83
2022-08-09T04:23:16.874Z,11.83
2022-08-09T04:25:44.037Z,11.79
2022-08-09T04:28:10.598Z,11.79
2022-08-09T04:30:39.088Z,11.84
2022-08-09T04:33:11.625Z,11.87
2022-08-09T04:35:40.654Z,11.86
2022-08-09T04:38:09.145Z,11.90
2022-08-09T04:40:54.279Z,11.94
2022-08-09T04:43:25.261Z,12.01
2022-08-09T04:45:53.690Z,12.02
2022-08-09T04:48:20.663Z,12.08
2022-08-09T04:50:50.199Z,12.05
2022-08-09T04:53:16.827Z,12.07
2022-08-09T04:55:57.736Z,12.08
2022-08-09T04:58:27.230Z,12.09
2022-08-09T05:00:54.503Z,12.09
2022-08-09T05:03:40.614Z,12.16
2022-08-09T05:06:09.262Z,12.22
2022-08-09T05:08:36.234Z,12.25
2022-08-09T05:11:03.436Z,12.28
2022-08-09T05:13:33.984Z,12.34
2022-08-09T05:16:07.162Z,12.43
2022-08-09T05:18:38.948Z,12.46
2022-08-09T05:21:22.948Z,12.51
2022-08-09T05:23:58.258Z,12.61
2022-08-09T05:26:36.913Z,12.70
2022-08-09T05:29:17.239Z,12.80
2022-08-09T05:31:46.636Z,12.92
2022-08-09T05:34:17.077Z,13.06
2022-08-09T05:36:47.216Z,13.39
2022-08-09T05:39:28.835Z,13.57
2022-08-09T05:42:01.722Z,13.87
2022-08-09T05:44:32.602Z,14.04
2022-08-09T05:47:00.167Z,14.21
2022-08-09T05:50:24.135Z,14.33
2022-08-09T05:52:13.858Z,14.54
2022-08-09T05:54:41.945Z,14.69
2022-08-09T05:57:12.734Z,14.92
2022-08-09T05:59:41.911Z,15.07
2022-08-09T06:02:09.991Z,15.16
2022-08-09T06:04:36.859Z,15.31
2022-08-09T06:07:11.554Z,15.47
2022-08-09T06:09:55.201Z,15.66
2022-08-09T06:12:30.532Z,15.91
2022-08-09T06:15:01.056Z,16.13
2022-08-09T06:17:39.751Z,16.26
2022-08-09T06:20:07.643Z,16.37
2022-08-09T06:22:34.743Z,16.39
2022-08-09T06:25:01.710Z,16.49
2022-08-09T06:27:43.199Z,16.59
2022-08-09T06:30:16.237Z,16.66
2022-08-09T06:33:00.211Z,16.74
2022-08-09T06:35:56.605Z,17.05
2022-08-09T06:38:17.505Z,17.29
2022-08-09T06:40:45.896Z,17.36
2022-08-09T06:43:13.588Z,17.50
2022-08-09T06:46:06.399Z,17.65
2022-08-09T06:48:30.859Z,17.89
2022-08-09T06:50:59.165Z,18.02
2022-08-09T06:53:25.807Z,18.22
2022-08-09T06:55:52.662Z,18.51
2022-08-09T06:58:40.887Z,18.76
2022-08-09T07:01:08.003Z,19.13
2022-08-09T07:03:39.495Z,19.51
2022-08-09T07:06:18.810Z,19.78
2022-08-09T07:08:46.605Z,19.97
2022-08-09T07:11:17.714Z,20.18
2022-08-09T07:14:05.545Z,20.28
2022-08-09T07:16:42.914Z,20.53
2022-08-09T07:19:23.087Z,20.73
2022-08-09T07:21:57.010Z,20.66
2022-08-09T07:24:32.879Z,20.56
2022-08-09T07:27:23.942Z,20.53
2022-08-09T07:29:57.179Z,20.50
2022-08-09T07:32:33.095Z,20.44
2022-08-09T07:35:11.471Z,20.45
2022-08-09T07:37:42.876Z,20.38
2022-08-09T07:40:13.616Z,20.52
2022-08-09T07:42:58.658Z,20.80
2022-08-09T07:45:37.600Z,21.10
2022-08-09T07:48:05.812Z,21.40
2022-08-09T07:50:34.815Z,21.63
2022-08-09T07:53:04.731Z,21.76
2022-08-09T07:55:41.413Z,22.11
2022-08-09T07:58:19.046Z,22.25
2022-08-09T08:00:55.792Z,22.35
2022-08-09T08:03:32.647Z,22.55
2022-08-09T08:05:59.437Z,22.73
2022-08-09T08:09:01.418Z,22.91
2022-08-09T08:12:10.640Z,23.31
2022-08-09T08:14:00.619Z,23.66
2022-08-09T08:16:31.251Z,24.05
2022-08-09T08:18:59.339Z,24.18
2022-08-09T08:21:26.627Z,24.34
2022-08-09T08:23:55.959Z,24.44
2022-08-09T08:26:26.323Z,24.46
2022-08-09T08:28:53.470Z,24.66
2022-08-09T08:31:20.039Z,25.12
2022-08-09T08:33:54.036Z,25.33
2022-08-09T08:36:28.909Z,25.47
2022-08-09T08:38:57.382Z,25.32
2022-08-09T08:41:24.636Z,25.52
2022-08-09T08:44:09.497Z,25.56
2022-08-09T08:47:02.671Z,25.74
2022-08-09T08:49:33.317Z,25.98
2022-08-09T08:52:10.166Z,25.90
2022-08-09T08:54:37.812Z,26.12
2022-08-09T08:57:11.396Z,26.27
2022-08-09T08:59:44.535Z,26.35
2022-08-09T09:02:30.782Z,25.96
2022-08-09T09:05:03.024Z,26.19
2022-08-09T09:07:36.819Z,26.31
2022-08-09T09:10:10.240Z,26.21
2022-08-09T09:12:37.133Z,26.42
2022-08-09T09:15:06.483Z,26.33
2022-08-09T09:17:48.229Z,26.36
2022-08-09T09:20:16.464Z,26.69
2022-08-09T09:22:52.914Z,26.67
2022-08-09T09:26:01.042Z,26.53
2022-08-09T09:29:02.236Z,26.69
2022-08-09T09:32:06.669Z,26.98
2022-08-09T09:34:14.327Z,27.50
2022-08-09T09:36:46.701Z,27.59
2022-08-09T09:39:22.778Z,27.33
2022-08-09T09:41:51.340Z,27.34
2022-08-09T09:44:31.749Z,27.66
2022-08-09T09:47:10.479Z,27.71
2022-08-09T09:50:07.436Z,27.63
2022-08-09T09:52:36.991Z,27.70
2022-08-09T09:55:27.591Z,28.03
2022-08-09T09:58:17.347Z,27.61
2022-08-09T10:01:04.731Z,27.81
2022-08-09T10:03:57.470Z,27.92
2022-08-09T10:06:43.427Z,28.21
2022-08-09T10:09:22.249Z,28.10
2022-08-09T10:12:12.304Z,28.36
2022-08-09T10:14:48.752Z,28.80
2022-08-09T10:17:51.308Z,29.04
2022-08-09T10:20:27.512Z,28.81
2022-08-09T10:23:17.315Z,28.41
2022-08-09T10:26:04.866Z,28.61
2022-08-09T10:28:35.508Z,28.76
2022-08-09T10:34:10.506Z,28.54
2022-08-09T10:36:36.674Z,28.84
2022-08-09T10:39:05.965Z,29.06
2022-08-09T10:41:42.816Z,29.17
2022-08-09T10:44:10.168Z,29.00
2022-08-09T10:46:57.771Z,29.40
2022-08-09T10:49:51.720Z,29.09
2022-08-09T10:52:42.910Z,29.13
2022-08-09T10:55:26.042Z,29.34
2022-08-09T10:57:55.520Z,29.55
2022-08-09T11:00:31.472Z,29.74
2022-08-09T11:03:27.582Z,29.75
2022-08-09T11:06:22.950Z,29.72
2022-08-09T11:08:51.798Z,29.79
2022-08-09T11:11:20.960Z,29.79
2022-08-09T11:14:28.150Z,30.03
2022-08-09T11:16:57.054Z,30.47
2022-08-09T11:20:10.965Z,30.48
2022-08-09T11:22:45.258Z,30.31
2022-08-09T11:25:15.689Z,30.03
2022-08-09T11:28:05.538Z,30.05
2022-08-09T11:30:37.744Z,29.85
2022-08-09T11:33:29.836Z,29.43
2022-08-09T11:35:58.545Z,30.29
2022-08-09T11:38:33.121Z,30.31
2022-08-09T11:41:13.628Z,30.22
2022-08-09T11:43:48.804Z,29.81
2022-08-09T11:46:26.516Z,29.76
2022-08-09T11:49:00.691Z,30.13
2022-08-09T11:52:49.142Z,30.39
2022-08-09T11:55:35.018Z,30.12
2022-08-09T11:58:16.361Z,30.84
2022-08-09T12:01:00.087Z,30.69
2022-08-09T12:03:50.411Z,30.12
2022-08-09T12:06:26.441Z,30.41
2022-08-09T12:08:55.303Z,30.37
2022-08-09T12:11:24.631Z,30.04
2022-08-09T12:14:10.614Z,29.90
2022-08-09T12:16:41.618Z,29.75
2022-08-09T12:19:12.253Z,29.65
2022-08-09T12:21:48.708Z,29.35
2022-08-09T12:24:23.997Z,29.61
2022-08-09T12:29:09.668Z,29.45
2022-08-09T12:29:59.786Z,29.64
2022-08-09T12:32:31.313Z,29.55
2022-08-09T12:35:04.670Z,29.42
2022-08-09T12:37:50.478Z,29.74
2022-08-09T12:40:20.458Z,29.90
2022-08-09T12:42:50.639Z,30.03
2022-08-09T12:45:34.787Z,30.12
2022-08-09T12:48:10.849Z,29.69
2022-08-09T12:50:53.853Z,29.79
2022-08-09T12:53:37.240Z,29.72
2022-08-09T12:56:43.433Z,29.90
2022-08-09T12:59:10.950Z,30.04
2022-08-09T13:01:42.745Z,29.93
2022-08-09T13:04:36.913Z,29.82
2022-08-09T13:07:19.341Z,29.83
2022-08-09T13:09:52.646Z,29.78
2022-08-09T13:12:22.784Z,29.87
2022-08-09T13:14:53.880Z,29.62
2022-08-09T13:17:44.183Z,29.45
2022-08-09T13:20:17.414Z,29.83
2022-08-09T13:23:05.204Z,29.45
2022-08-09T13:25:54.369Z,29.39
2022-08-09T13:28:33.941Z,29.29
2022-08-09T13:32:13.912Z,29.49
2022-08-09T13:33:54.762Z,29.48
2022-08-09T13:36:24.467Z,29.37
2022-08-09T13:41:20.786Z,29.68
2022-08-09T13:42:00.694Z,29.72
2022-08-09T13:44:28.915Z,29.50
2022-08-09T13:47:26.686Z,29.29
2022-08-09T13:49:58.187Z,29.00
2022-08-09T13:52:29.269Z,29.25
2022-08-09T13:55:00.139Z,29.05
2022-08-09T13:57:36.575Z,29.13
2022-08-09T14:00:10.085Z,29.05
2022-08-09T14:02:42.469Z,29.00
2022-08-09T14:05:58.696Z,28.77
2022-08-09T14:08:10.446Z,28.43
2022-08-09T14:10:46.216Z,28.68
2022-08-09T14:13:28.341Z,28.71
2022-08-09T14:16:10.851Z,28.84
2022-08-09T14:18:39.263Z,28.61
2022-08-09T14:21:17.754Z,28.62
2022-08-09T14:23:55.067Z,28.54
2022-08-09T14:26:32.975Z,28.54
2022-08-09T14:29:25.601Z,28.64
2022-08-09T14:31:58.205Z,28.43
2022-08-09T14:34:33.023Z,28.36
2022-08-09T14:37:01.727Z,28.20
2022-08-09T14:39:40.129Z,28.12
2022-08-09T14:42:13.083Z,28.31
2022-08-09T14:45:01.621Z,28.13
2022-08-09T14:47:57.359Z,27.95
2022-08-09T14:50:31.443Z,27.85
2022-08-09T14:53:00.234Z,27.97
2022-08-09T14:55:31.992Z,27.90
2022-08-09T14:58:05.277Z,27.79
2022-08-09T15:00:33.720Z,27.82
2022-08-09T15:03:01.941Z,27.71
2022-08-09T15:05:30.667Z,27.76
2022-08-09T15:07:58.341Z,27.51
2022-08-09T15:10:26.831Z,27.48
2022-08-09T15:12:54.762Z,27.72
2022-08-09T15:15:22.550Z,27.50
2022-08-09T15:17:52.811Z,27.57
2022-08-09T15:21:56.201Z,27.67
2022-08-09T15:23:56.052Z,27.47
2022-08-09T15:25:58.547Z,27.50
2022-08-09T15:28:27.991Z,27.52
2022-08-09T15:31:08.592Z,27.50
2022-08-09T15:34:19.545Z,27.26
2022-08-09T15:36:29.247Z,27.21
2022-08-09T15:38:58.674Z,26.94
2022-08-09T15:41:31.299Z,27.00
2022-08-09T15:44:02.635Z,26.92
2022-08-09T15:46:33.200Z,26.70
2022-08-09T15:49:23.054Z,26.65
2022-08-09T15:52:04.827Z,26.82
2022-08-09T15:54:44.590Z,26.77
2022-08-09T15:57:34.963Z,26.59
2022-08-09T16:00:10.920Z,26.65
2022-08-09T16:02:41.099Z,26.48
2022-08-09T16:05:10.589Z,26.48
2022-08-09T16:07:38.823Z,26.51
2022-08-09T16:10:11.052Z,26.39
2022-08-09T16:12:50.136Z,26.42
2022-08-09T16:16:04.787Z,26.34
2022-08-09T16:18:05.207Z,26.26
2022-08-09T16:20:31.814Z,26.16
2022-08-09T16:22:58.372Z,26.17
2022-08-09T16:25:36.945Z,25.95
2022-08-09T16:28:07.062Z,25.91
2022-08-09T16:30:33.693Z,25.80
2022-08-09T16:33:10.091Z,25.66
2022-08-09T16:35:53.096Z,25.56
2022-08-09T16:38:24.581Z,25.51
2022-08-09T16:40:52.011Z,25.41
2022-08-09T16:43:18.663Z,25.39
2022-08-09T16:45:48.025Z,25.32
2022-08-09T16:48:40.748Z,25.26
2022-08-09T16:51:07.511Z,25.24
2022-08-09T16:53:36.421Z,25.16
2022-08-09T16:56:10.094Z,25.01
2022-08-09T16:58:39.890Z,24.99
2022-08-09T17:01:16.579Z,24.96
2022-08-09T17:03:46.264Z,24.89
2022-08-09T17:06:32.127Z,24.87
2022-08-09T17:09:16.099Z,24.82
2022-08-09T17:11:51.618Z,24.72
2022-08-09T17:14:26.038Z,24.62
2022-08-09T17:16:55.862Z,24.54
2022-08-09T17:19:22.396Z,24.46
2022-08-09T17:21:54.549Z,24.41
2022-08-09T17:24:30.168Z,24.32
2022-08-09T17:26:58.281Z,24.30
2022-08-09T17:29:25.341Z,24.17
2022-08-09T17:32:01.876Z,24.12
2022-08-09T17:35:07.545Z,24.04
2022-08-09T17:37:19.552Z,23.97
2022-08-09T17:39:52.543Z,23.97
2022-08-09T17:42:41.180Z,23.85
2022-08-09T17:45:16.021Z,23.77
2022-08-09T17:47:55.003Z,23.69
2022-08-09T17:50:36.015Z,23.63
2022-08-09T17:53:19.750Z,23.55
2022-08-09T17:55:51.961Z,23.43
2022-08-09T17:58:26.775Z,23.31
2022-08-09T18:00:56.307Z,23.27
2022-08-09T18:03:24.536Z,23.16
2022-08-09T18:05:53.237Z,23.06
2022-08-09T18:08:22.150Z,22.96
2022-08-09T18:11:01.053Z,22.86
2022-08-09T18:13:38.978Z,22.78
2022-08-09T18:16:16.496Z,22.66
2022-08-09T18:18:49.175Z,22.58
2022-08-09T18:21:23.022Z,22.50
2022-08-09T18:24:10.730Z,22.41
2022-08-09T18:26:38.899Z,22.29
2022-08-09T18:30:38.343Z,22.15
2022-08-09T18:32:01.017Z,22.01
2022-08-09T18:34:31.506Z,21.87
2022-08-09T18:36:58.380Z,21.75
2022-08-09T18:39:25.799Z,21.67
2022-08-09T18:42:01.076Z,21.53
2022-08-09T18:44:28.077Z,21.47
2022-08-09T18:47:07.448Z,21.38
2022-08-09T18:49:43.332Z,21.31
2022-08-09T18:52:14.590Z,21.21
2022-08-09T18:54:52.166Z,21.06
2022-08-09T18:57:19.907Z,20.94
2022-08-09T18:59:54.418Z,20.78
2022-08-09T19:02:23.980Z,20.65
2022-08-09T19:05:03.983Z,20.52
2022-08-09T19:07:42.170Z,20.39
2022-08-09T19:10:26.902Z,20.31
2022-08-09T19:13:17.949Z,20.22
2022-08-09T19:15:47.189Z,20.11
2022-08-09T19:18:33.310Z,20.01
2022-08-09T19:21:09.714Z,19.86
2022-08-09T19:24:39.832Z,19.79
2022-08-09T19:26:31.060Z,19.67
2022-08-09T19:29:01.731Z,19.56
2022-08-09T19:31:30.236Z,19.43
2022-08-09T19:33:57.826Z,19.28
2022-08-09T19:36:31.042Z,19.19
2022-08-09T19:39:01.137Z,19.07
2022-08-09T19:41:33.171Z,18.95
2022-08-09T19:44:03.361Z,18.81
2022-08-09T19:46:35.339Z,18.73
2022-08-09T19:50:10.139Z,18.61
2022-08-09T19:51:55.467Z,18.51
2022-08-09T19:54:25.099Z,18.44
2022-08-09T19:56:52.349Z,18.40
2022-08-09T19:59:58.481Z,18.42
2022-08-09T20:03:23.934Z,18.36
2022-08-09T20:04:54.854Z,18.30
2022-08-09T20:07:22.504Z,18.20
2022-08-09T20:09:49.314Z,18.12
2022-08-09T20:12:30.209Z,18.07
2022-08-09T20:15:04.499Z,18.03
2022-08-09T20:17:41.661Z,17.98
2022-08-09T20:20:15.504Z,17.93
2022-08-09T20:22:46.371Z,17.88
2022-08-09T20:25:13.210Z,17.78
2022-08-09T20:27:49.121Z,17.79
2022-08-09T20:30:18.081Z,17.73
2022-08-09T20:32:52.315Z,17.66
2022-08-09T20:35:20.298Z,17.60
2022-08-09T20:38:19.097Z,17.56
2022-08-09T20:40:33.817Z,17.52
2022-08-09T20:43:18.534Z,17.47
2022-08-09T20:46:00.567Z,17.41
2022-08-09T20:48:36.986Z,17.40
2022-08-09T20:51:05.686Z,17.30
2022-08-09T20:53:36.632Z,17.25
2022-08-09T20:56:20.767Z,17.22
2022-08-09T20:58:50.178Z,17.15
2022-08-09T21:01:34.590Z,17.16
2022-08-09T21:05:48.941Z,17.13
2022-08-09T21:06:51.659Z,17.09
2022-08-09T21:09:32.922Z,17.04
2022-08-09T21:14:34.673Z,16.95
2022-08-09T21:17:02.613Z,16.94
2022-08-09T21:20:18.639Z,16.88
2022-08-09T21:22:41.319Z,16.86
2022-08-09T21:25:27.821Z,16.79
2022-08-09T21:28:07.073Z,16.73
2022-08-09T21:30:37.087Z,16.68
2022-08-09T21:33:07.700Z,16.65
2022-08-09T21:35:40.652Z,16.59
2022-08-09T21:38:11.698Z,16.58
2022-08-09T21:40:39.175Z,16.56
2022-08-09T21:43:07.958Z,16.57
2022-08-09T21:45:39.127Z,16.54
2022-08-09T21:48:07.054Z,16.52
2022-08-09T21:50:38.422Z,16.47
2022-08-09T21:53:24.022Z,16.39
2022-08-09T21:55:54.254Z,16.37
2022-08-09T21:58:21.052Z,16.36
2022-08-09T22:00:55.832Z,16.36
2022-08-09T22:03:25.781Z,16.32
2022-08-09T22:05:54.231Z,16.32
2022-08-09T22:08:24.469Z,16.28
2022-08-09T22:11:00.955Z,16.23
2022-08-09T22:13:42.238Z,16.26
2022-08-09T22:16:10.183Z,16.37
2022-08-09T22:18:38.341Z,16.43
2022-08-09T22:21:09.556Z,16.62
2022-08-09T22:23:59.356Z,16.77
2022-08-09T22:26:34.919Z,16.92
2022-08-09T22:29:07.385Z,16.96
2022-08-09T22:31:35.422Z,17.01
2022-08-09T22:34:02.614Z,17.07
2022-08-09T22:36:29.157Z,17.09
2022-08-09T22:39:20.535Z,17.08
2022-08-09T22:41:59.114Z,17.13
2022-08-09T22:44:29.887Z,17.18
2022-08-09T22:48:11.599Z,17.26
2022-08-09T22:49:46.468Z,17.40
2022-08-09T22:52:13.093Z,17.44
2022-08-09T22:54:42.385Z,17.55
2022-08-09T22:57:14.452Z,17.62
2022-08-09T22:59:57.273Z,17.65
2022-08-09T23:02:27.422Z,17.67
2022-08-09T23:04:54.781Z,17.62
2022-08-09T23:08:21.885Z,17.63
2022-08-09T23:10:31.937Z,17.58
2022-08-09T23:12:59.456Z,17.52
2022-08-09T23:15:27.433Z,17.42
2022-08-09T23:17:54.365Z,17.22
2022-08-09T23:20:21.314Z,17.14
2022-08-09T23:22:47.905Z,17.08
2022-08-09T23:25:14.514Z,17.02
2022-08-09T23:28:14.077Z,16.97
2022-08-09T23:30:27.979Z,17.01
2022-08-09T23:32:54.469Z,17.05
2022-08-09T23:35:21.007Z,17.07
2022-08-09T23:37:47.567Z,17.07
2022-08-09T23:40:14.181Z,17.12
2022-08-09T23:42:40.807Z,17.10
2022-08-09T23:45:08.864Z,17.11
2022-08-09T23:47:35.575Z,17.09
2022-08-09T23:50:02.097Z,17.09
2022-08-09T23:52:28.666Z,17.04
2022-08-09T23:54:57.465Z,16.92
2022-08-09T23:57:23.966Z,16.91
